Time;durP1;ratioP1;P1;durP2;ratioP2;P2;SDS_P1;SDS_P2;PMS_P1;PMS_P2;Temp;Humidity;BMP_temperature;BMP_pressure;BME280_temperature;BME280_humidity;BME280_pressure;Samples;Min_cycle;Max_cycle;Signal;HPM_P1;HPM_P2
2022/08/09 00:00:59;;;;;;;4.97;2.40;;;;;;;19.47;55.52;101277.78;5016395;28;20504;-70
2022/08/09 00:03:25;;;;;;;3.63;1.88;;;;;;;19.50;55.54;101288.41;5010522;28;20038;-70
2022/08/09 00:05:50;;;;;;;6.70;2.20;;;;;;;19.38;56.29;101280.63;5027371;28;20029;-70
2022/08/09 00:08:15;;;;;;;3.83;1.92;;;;;;;19.28;58.09;101280.16;5038748;28;20041;-70
2022/08/09 00:10:41;;;;;;;4.80;2.20;;;;;;;19.33;56.87;101274.34;5029974;28;20037;-70
2022/08/09 00:13:07;;;;;;;4.65;2.13;;;;;;;19.31;58.81;101290.75;5010988;28;20395;-70
2022/08/09 00:15:33;;;;;;;5.55;2.58;;;;;;;19.32;56.58;101281.16;5016621;28;20091;-70
2022/08/09 00:17:58;;;;;;;3.75;1.80;;;;;;;19.30;55.77;101283.47;5015014;28;20055;-70
2022/08/09 00:20:24;;;;;;;4.63;1.77;;;;;;;19.27;55.37;101279.31;5019790;28;20124;-70
2022/08/09 00:22:49;;;;;;;4.72;2.22;;;;;;;19.20;56.43;101279.84;5005231;28;20026;-70
2022/08/09 00:25:15;;;;;;;6.97;2.00;;;;;;;19.18;57.62;101281.34;5020719;28;20029;-70
2022/08/09 00:27:40;;;;;;;3.65;2.10;;;;;;;19.19;56.40;101272.56;5025925;28;20105;-70
2022/08/09 00:30:06;;;;;;;3.42;1.98;;;;;;;19.20;56.67;101274.22;5015743;28;20036;-70
2022/08/09 00:32:32;;;;;;;2.90;1.80;;;;;;;19.18;57.42;101272.88;5004353;28;20040;-70
2022/08/09 00:34:57;;;;;;;5.60;1.92;;;;;;;19.20;57.68;101279.03;5005710;28;20029;-70
2022/08/09 00:37:23;;;;;;;4.05;1.90;;;;;;;19.16;57.53;101275.19;4991933;28;20124;-70
2022/08/09 00:39:48;;;;;;;4.03;2.28;;;;;;;19.04;58.96;101277.88;4995778;28;20029;-70
2022/08/09 00:42:14;;;;;;;3.80;2.40;;;;;;;19.00;59.63;101280.53;5012874;28;20441;-70
2022/08/09 00:44:39;;;;;;;3.05;2.08;;;;;;;18.97;58.21;101286.81;5002717;28;20031;-70
2022/08/09 00:47:05;;;;;;;6.40;2.58;;;;;;;18.95;57.42;101284.34;5032650;28;20027;-70
2022/08/09 00:49:31;;;;;;;6.18;2.20;;;;;;;18.96;58.48;101285.16;5004597;28;20392;-70
2022/08/09 00:51:57;;;;;;;3.88;2.05;;;;;;;18.95;57.33;101275.91;5025808;28;20048;-70
2022/08/09 00:54:23;;;;;;;2.67;1.98;;;;;;;18.91;57.70;101283.34;5002735;28;20393;-70
2022/08/09 00:56:49;;;;;;;5.82;2.22;;;;;;;18.84;60.23;101279.38;5008825;28;20113;-69
2022/08/09 00:59:15;;;;;;;4.53;2.28;;;;;;;18.83;58.14;101277.72;5016460;28;20029;-70
2022/08/09 01:01:40;;;;;;;7.25;2.55;;;;;;;18.73;61.04;101279.69;4998598;28;20082;-69
2022/08/09 01:04:11;;;;;;;4.93;2.00;;;;;;;18.69;61.37;101280.66;4998629;28;20029;-69
2022/08/09 01:06:47;;;;;;;4.15;2.10;;;;;;;18.65;60.38;101283.31;5016929;28;20076;-70
2022/08/09 01:09:21;;;;;;;6.72;2.70;;;;;;;18.57;61.10;101286.94;4996252;28;20049;-69
2022/08/09 01:11:58;;;;;;;5.85;2.60;;;;;;;18.53;61.00;101295.22;5034097;28;20039;-69
2022/08/09 01:14:56;;;;;;;5.47;2.40;;;;;;;18.53;60.39;101291.59;5029029;28;20370;-69
2022/08/09 01:17:29;;;;;;;3.92;1.88;;;;;;;18.55;58.65;101283.63;5039773;28;20046;-69
2022/08/09 01:20:18;;;;;;;3.83;2.05;;;;;;;18.52;57.78;101281.47;5013419;28;20048;-70
2022/08/09 01:23:05;;;;;;;5.15;2.60;;;;;;;18.48;59.94;101278.50;5031784;28;20041;-69
2022/08/09 01:25:55;;;;;;;4.47;2.35;;;;;;;18.42;61.68;101282.63;5016158;28;20029;-70
2022/08/09 01:28:21;;;;;;;6.85;2.10;;;;;;;18.47;59.75;101285.31;5045336;28;20389;-70
2022/08/09 01:30:46;;;;;;;3.97;2.20;;;;;;;18.46;58.97;101288.44;5020625;28;20040;-70
2022/08/09 01:33:12;;;;;;;2.97;1.88;;;;;;;18.45;58.98;101281.97;5014837;28;20029;-70
2022/08/09 01:35:41;;;;;;;3.55;2.00;;;;;;;18.44;58.45;101279.47;5007287;28;20036;-70
2022/08/09 01:38:09;;;;;;;4.57;2.28;;;;;;;18.38;57.93;101276.00;4992130;28;20417;-70
2022/08/09 01:40:34;;;;;;;4.50;2.03;;;;;;;18.33;58.33;101278.13;5019584;28;20037;-70
2022/08/09 01:43:00;;;;;;;6.15;2.58;;;;;;;18.29;60.00;101278.81;5006978;28;20065;-70
2022/08/09 01:45:25;;;;;;;4.72;2.40;;;;;;;18.29;61.52;101277.97;5011037;28;20025;-70
2022/08/09 01:47:51;;;;;;;6.25;2.42;;;;;;;18.20;60.03;101285.56;5011406;28;20030;-70
2022/08/09 01:50:16;;;;;;;3.08;1.90;;;;;;;18.13;59.03;101274.78;5017637;28;20033;-70
2022/08/09 01:52:42;;;;;;;6.80;2.60;;;;;;;18.09;60.00;101277.44;5012214;28;20044;-70
2022/08/09 01:55:07;;;;;;;5.95;2.50;;;;;;;18.06;60.28;101269.66;5025196;28;20025;-70
2022/08/09 01:57:40;;;;;;;5.28;2.20;;;;;;;18.05;60.18;101276.44;5016553;28;20104;-70
2022/08/09 02:00:06;;;;;;;5.97;2.28;;;;;;;17.98;63.09;101270.47;5008038;28;20032;-70
2022/08/09 02:02:34;;;;;;;3.08;2.10;;;;;;;17.99;62.54;101266.47;5006957;28;20033;-70
2022/08/09 02:05:01;;;;;;;5.00;2.50;;;;;;;17.96;60.22;101269.94;5009485;28;20392;-70
2022/08/09 02:07:27;;;;;;;3.45;2.30;;;;;;;17.93;62.51;101270.59;5012809;28;20048;-70
2022/08/09 02:09:58;;;;;;;3.85;2.10;;;;;;;17.96;59.80;101267.13;4982181;28;20038;-70
2022/08/09 02:12:24;;;;;;;4.55;2.30;;;;;;;17.94;59.13;101269.47;5021992;28;20527;-70
2022/08/09 02:14:50;;;;;;;3.17;1.80;;;;;;;17.94;59.81;101266.66;5005748;28;20037;-70
2022/08/09 02:17:17;;;;;;;3.92;2.13;;;;;;;17.92;61.31;101268.13;5006072;28;20029;-70
2022/08/09 02:19:42;;;;;;;4.85;2.70;;;;;;;17.80;63.51;101265.91;5002156;28;20057;-70
2022/08/09 02:22:27;;;;;;;7.05;2.63;;;;;;;17.69;64.63;101270.13;5021762;28;20033;-70
2022/08/09 02:24:52;;;;;;;6.28;2.30;;;;;;;17.73;61.49;101268.34;5015392;28;20037;-70
2022/08/09 02:27:19;;;;;;;4.45;2.53;;;;;;;17.76;61.94;101268.53;5000450;28;20029;-69
2022/08/09 02:29:47;;;;;;;4.68;2.13;;;;;;;17.74;62.96;101270.00;5007620;28;20462;-70
2022/08/09 02:32:12;;;;;;;5.72;2.22;;;;;;;17.73;61.83;101269.19;5021504;28;20036;-70
2022/08/09 02:34:38;;;;;;;4.38;2.45;;;;;;;17.73;61.41;101271.16;5021261;28;20029;-70
2022/08/09 02:37:05;;;;;;;3.45;1.80;;;;;;;17.71;61.41;101284.69;5019736;28;20045;-69
2022/08/09 02:39:34;;;;;;;3.53;2.25;;;;;;;17.71;61.71;101276.28;4981114;28;20036;-70
2022/08/09 02:42:05;;;;;;;2.88;2.05;;;;;;;17.71;61.22;101267.84;5011897;28;20060;-70
2022/08/09 02:44:34;;;;;;;5.32;2.10;;;;;;;17.70;60.33;101271.81;5002232;28;20108;-70
2022/08/09 02:47:04;;;;;;;3.08;1.90;;;;;;;17.69;59.29;101279.41;5019209;28;20160;-70
2022/08/09 02:49:32;;;;;;;7.78;2.67;;;;;;;17.68;58.86;101280.56;5029034;28;20037;-69
2022/08/09 02:51:58;;;;;;;4.38;2.15;;;;;;;17.64;59.74;101274.75;4999153;28;20053;-70
2022/08/09 02:54:23;;;;;;;3.15;1.77;;;;;;;17.65;59.26;101269.97;4998611;28;20036;-70
2022/08/09 02:56:49;;;;;;;3.22;2.00;;;;;;;17.65;58.97;101267.97;5016869;28;20029;-70
2022/08/09 02:59:14;;;;;;;3.75;2.10;;;;;;;17.57;57.49;101265.97;4999885;28;20488;-70
2022/08/09 03:01:40;;;;;;;4.32;2.28;;;;;;;17.50;58.32;101256.38;4990188;28;20087;-70
2022/08/09 03:04:05;;;;;;;5.90;2.00;;;;;;;17.46;58.63;101260.94;5026262;28;20033;-70
2022/08/09 03:06:30;;;;;;;3.95;2.10;;;;;;;17.42;59.91;101269.19;5035581;28;20032;-70
2022/08/09 03:08:56;;;;;;;2.13;1.70;;;;;;;17.38;60.66;101271.84;5005636;28;20056;-70
2022/08/09 03:11:22;;;;;;;4.88;2.00;;;;;;;17.37;59.33;101270.16;5002442;28;20527;-70
2022/08/09 03:13:47;;;;;;;4.35;2.28;;;;;;;17.28;60.47;101266.47;5013255;28;20457;-70
2022/08/09 03:16:13;;;;;;;6.93;2.55;;;;;;;17.23;61.61;101271.41;5002108;28;20032;-70
2022/08/09 03:18:39;;;;;;;4.78;2.60;;;;;;;17.08;64.39;101273.47;5014795;28;20028;-70
2022/08/09 03:21:05;;;;;;;4.28;2.05;;;;;;;17.06;63.20;101269.31;5001848;28;20049;-70
2022/08/09 03:23:30;;;;;;;4.35;2.50;;;;;;;16.98;64.95;101268.09;5007605;28;20049;-70
2022/08/09 03:25:56;;;;;;;6.60;2.47;;;;;;;17.02;65.16;101266.31;5017474;28;20025;-70
2022/08/09 03:28:22;;;;;;;4.10;2.50;;;;;;;16.97;65.45;101269.25;5008032;28;20037;-70
2022/08/09 03:30:47;;;;;;;5.60;2.85;;;;;;;16.94;64.86;101275.50;5007801;28;20038;-70
2022/08/09 03:33:13;;;;;;;6.88;2.65;;;;;;;16.94;67.27;101262.28;5032267;28;20034;-70
2022/08/09 03:35:38;;;;;;;3.85;2.25;;;;;;;16.91;64.15;101264.88;5000829;28;20110;-70
2022/08/09 03:38:04;;;;;;;5.13;2.70;;;;;;;16.95;66.56;101263.13;5004100;28;20034;-70
2022/08/09 03:40:30;;;;;;;4.65;2.08;;;;;;;16.97;63.04;101266.44;5004225;28;20034;-69
2022/08/09 03:42:55;;;;;;;6.30;2.70;;;;;;;16.94;64.23;101272.69;4983329;28;20543;-69
2022/08/09 03:45:20;;;;;;;6.65;2.50;;;;;;;16.90;64.63;101274.47;4998311;28;20030;-69
2022/08/09 03:47:46;;;;;;;4.72;2.17;;;;;;;16.83;65.73;101265.69;4999248;28;20029;-70
2022/08/09 03:50:11;;;;;;;3.22;2.33;;;;;;;16.80;65.31;101271.91;5018443;28;20087;-70
2022/08/09 03:52:41;;;;;;;4.80;3.03;;;;;;;16.72;66.59;101274.28;5016852;28;20032;-69
2022/08/09 03:55:07;;;;;;;5.13;3.00;;;;;;;16.68;68.65;101275.25;5010394;28;20037;-69
2022/08/09 03:57:32;;;;;;;6.13;2.60;;;;;;;16.71;66.06;101280.22;5018004;28;20034;-70
2022/08/09 03:59:58;;;;;;;6.32;2.67;;;;;;;16.66;66.96;101272.78;5026218;28;20440;-70
2022/08/09 04:02:24;;;;;;;4.85;2.55;;;;;;;16.63;66.24;101276.22;5018134;28;20033;-70
2022/08/09 04:04:50;;;;;;;3.53;2.80;;;;;;;16.70;67.06;101282.19;5017901;28;20036;-69
2022/08/09 04:07:16;;;;;;;7.32;2.70;;;;;;;16.74;65.96;101273.97;4998552;28;20030;-70
2022/08/09 04:09:41;;;;;;;3.80;2.67;;;;;;;16.74;65.55;101286.03;5016687;28;20037;-69
2022/08/09 04:12:09;;;;;;;5.57;2.20;;;;;;;16.77;65.31;101281.81;5034641;28;20386;-70
2022/08/09 04:14:38;;;;;;;5.30;2.42;;;;;;;16.77;65.11;101280.94;5034382;28;20036;-70
2022/08/09 04:17:04;;;;;;;4.30;2.30;;;;;;;16.80;64.61;101278.38;5018254;28;20038;-70
2022/08/09 04:19:30;;;;;;;4.78;2.33;;;;;;;16.80;64.76;101277.50;5034319;28;20054;-70
2022/08/09 04:21:55;;;;;;;4.47;2.03;;;;;;;16.81;63.95;101279.19;5035216;28;20038;-69
2022/08/09 04:24:21;;;;;;;3.50;2.30;;;;;;;16.75;62.87;101279.28;5034464;28;20076;-69
2022/08/09 04:26:46;;;;;;;5.65;2.85;;;;;;;16.74;63.53;101282.38;5017852;28;20389;-69
2022/08/09 04:29:12;;;;;;;5.47;2.75;;;;;;;16.69;62.82;101286.16;5004147;28;20025;-70
2022/08/09 04:31:37;;;;;;;3.20;2.30;;;;;;;16.64;63.95;101288.25;5041495;28;20029;-70
2022/08/09 04:34:03;;;;;;;5.85;2.40;;;;;;;16.61;63.92;101288.88;5017886;28;20036;-69
2022/08/09 04:36:29;;;;;;;4.72;2.35;;;;;;;16.50;63.83;101286.31;5014601;28;20109;-69
2022/08/09 04:38:58;;;;;;;5.60;2.30;;;;;;;16.41;64.63;101282.59;5005035;28;20035;-69
2022/08/09 04:41:24;;;;;;;4.53;2.22;;;;;;;16.38;65.00;101282.38;5037911;28;20025;-70
2022/08/09 04:43:50;;;;;;;5.35;2.90;;;;;;;16.39;67.20;101286.84;5037790;28;20029;-70
2022/08/09 04:46:16;;;;;;;4.53;2.58;;;;;;;16.42;65.42;101281.44;5021167;28;20021;-69
2022/08/09 04:48:41;;;;;;;3.85;2.05;;;;;;;16.34;64.75;101287.78;5004900;28;20028;-70
2022/08/09 04:51:07;;;;;;;4.75;2.95;;;;;;;16.26;66.99;101292.16;5018064;28;20084;-70
2022/08/09 04:53:32;;;;;;;4.78;2.90;;;;;;;16.24;66.16;101283.25;5019373;28;20033;-70
2022/08/09 04:55:58;;;;;;;4.72;2.25;;;;;;;16.19;66.88;101288.13;5020618;28;20038;-70
2022/08/09 04:58:24;;;;;;;5.70;2.80;;;;;;;16.13;67.15;101284.63;5020991;28;20065;-69
2022/08/09 05:00:49;;;;;;;5.82;2.55;;;;;;;16.09;66.93;101291.97;5004495;28;20025;-69
2022/08/09 05:03:14;;;;;;;5.00;2.90;;;;;;;16.07;69.52;101288.66;5037395;28;20034;-69
2022/08/09 05:05:40;;;;;;;5.32;2.90;;;;;;;16.13;67.71;101283.75;5037145;28;20087;-70
2022/08/09 05:08:05;;;;;;;7.03;2.92;;;;;;;16.01;70.97;101292.69;5020793;28;20025;-70
2022/08/09 05:10:31;;;;;;;4.30;2.58;;;;;;;16.08;69.30;101293.13;5020890;28;20087;-69
2022/08/09 05:12:56;;;;;;;6.50;2.72;;;;;;;16.05;71.70;101290.94;5020651;28;20040;-69
2022/08/09 05:15:23;;;;;;;5.35;3.10;;;;;;;16.12;70.98;101296.13;5011589;28;20509;-70
2022/08/09 05:17:49;;;;;;;5.30;3.17;;;;;;;16.12;71.65;101293.31;5010060;28;20064;-69
2022/08/09 05:20:14;;;;;;;6.78;3.22;;;;;;;16.16;72.09;101292.41;5000419;28;20045;-69
2022/08/09 05:22:40;;;;;;;9.30;3.47;;;;;;;16.22;72.94;101298.72;5019247;28;20025;-70
2022/08/09 05:25:05;;;;;;;5.13;3.15;;;;;;;16.30;73.55;101298.81;5028145;28;20100;-70
2022/08/09 05:27:31;;;;;;;6.93;3.00;;;;;;;16.39;72.53;101301.69;5015871;28;20104;-70
2022/08/09 05:29:56;;;;;;;7.15;3.10;;;;;;;16.47;73.57;101308.53;5031265;28;20041;-69
2022/08/09 05:32:22;;;;;;;4.70;2.83;;;;;;;16.57;71.31;101305.50;5029383;28;20100;-70
2022/08/09 05:34:47;;;;;;;6.00;2.95;;;;;;;16.71;72.52;101303.47;5020023;28;20029;-70
2022/08/09 05:37:14;;;;;;;7.50;3.00;;;;;;;16.84;70.70;101301.81;5036433;28;20041;-70
2022/08/09 05:39:40;;;;;;;8.30;3.42;;;;;;;16.99;71.49;101300.59;4995942;28;20034;-69
2022/08/09 05:42:05;;;;;;;8.15;3.35;;;;;;;17.12;72.01;101294.09;5019917;28;20092;-70
2022/08/09 05:44:31;;;;;;;6.72;3.10;;;;;;;17.30;72.19;101302.63;5016654;28;20022;-69
2022/08/09 05:46:56;;;;;;;7.70;3.40;;;;;;;17.45;73.12;101310.69;5034927;28;20504;-70
2022/08/09 05:49:22;;;;;;;5.65;3.05;;;;;;;17.59;72.27;101304.97;5010923;28;20646;-70
2022/08/09 05:51:47;;;;;;;8.35;3.33;;;;;;;17.75;71.58;101311.00;5037433;28;20066;-70
2022/08/09 05:54:12;;;;;;;7.38;3.00;;;;;;;17.93;69.39;101317.56;5037464;28;20038;-70
2022/08/09 05:56:38;;;;;;;4.75;2.13;;;;;;;18.09;65.57;101308.34;5013543;28;20025;-70
2022/08/09 05:59:03;;;;;;;5.25;3.25;;;;;;;18.27;69.51;101314.84;5040098;28;20025;-70
2022/08/09 06:01:29;;;;;;;5.45;2.80;;;;;;;18.45;69.83;101317.72;5035759;28;20485;-70
2022/08/09 06:03:55;;;;;;;7.30;3.20;;;;;;;18.62;69.33;101308.47;5014972;28;20033;-70
2022/08/09 06:06:21;;;;;;;7.35;3.40;;;;;;;18.76;68.31;101312.00;4996574;28;20029;-70
2022/08/09 06:08:46;;;;;;;4.25;3.00;;;;;;;18.92;67.28;101317.97;5002192;28;20085;-70
2022/08/09 06:11:12;;;;;;;9.10;2.47;;;;;;;19.08;65.67;101319.09;5025300;28;20036;-70
2022/08/09 06:13:37;;;;;;;10.07;2.88;;;;;;;19.26;65.06;101311.47;5012399;28;20037;-70
2022/08/09 06:16:03;;;;;;;6.82;3.13;;;;;;;19.44;66.14;101315.06;5034377;28;20709;-70
2022/08/09 06:18:29;;;;;;;8.05;3.05;;;;;;;19.57;64.97;101328.13;5015119;28;20033;-70
2022/08/09 06:20:55;;;;;;;7.40;3.33;;;;;;;19.73;65.08;101324.81;5002665;28;20563;-70
2022/08/09 06:23:21;;;;;;;7.05;2.92;;;;;;;19.91;64.64;101325.56;5005477;28;20033;-70
2022/08/09 06:25:46;;;;;;;6.55;2.97;;;;;;;20.04;63.42;101328.16;5017553;28;20041;-70
2022/08/09 06:28:12;;;;;;;6.40;3.00;;;;;;;20.20;63.42;101328.44;4999123;28;20035;-70
2022/08/09 06:30:37;;;;;;;9.55;3.67;;;;;;;20.35;63.32;101334.66;5018897;28;20037;-70
2022/08/09 06:33:03;;;;;;;10.13;3.13;;;;;;;20.44;62.16;101333.44;5035904;28;20037;-71
2022/08/09 06:35:29;;;;;;;8.48;3.38;;;;;;;20.50;62.09;101337.72;5017268;28;20033;-71
2022/08/09 06:37:54;;;;;;;5.35;3.30;;;;;;;20.61;61.98;101338.16;5007334;28;20474;-72
2022/08/09 06:40:19;;;;;;;7.35;3.30;;;;;;;20.68;62.11;101340.47;5014569;28;20037;-70
2022/08/09 06:42:45;;;;;;;7.85;3.30;;;;;;;20.80;61.74;101340.53;5034359;28;20045;-70
2022/08/09 06:45:10;;;;;;;9.63;3.92;;;;;;;20.85;61.30;101340.31;4999129;28;20033;-71
2022/08/09 06:47:36;;;;;;;8.25;3.33;;;;;;;20.97;61.25;101340.38;5027664;28;20466;-71
2022/08/09 06:50:02;;;;;;;8.65;3.70;;;;;;;20.96;60.78;101343.56;5002910;28;20541;-70
2022/08/09 06:52:27;;;;;;;7.72;3.22;;;;;;;20.98;60.56;101346.88;5019519;28;20025;-71
2022/08/09 06:54:53;;;;;;;5.22;3.08;;;;;;;21.10;60.46;101351.75;5011740;28;20029;-71
2022/08/09 06:57:18;;;;;;;11.05;3.20;;;;;;;21.22;60.14;101342.50;5018803;28;20654;-71
2022/08/09 06:59:45;;;;;;;6.45;2.75;;;;;;;21.27;59.67;101342.31;5018304;28;20033;-71
2022/08/09 07:02:10;;;;;;;7.63;3.47;;;;;;;21.34;59.25;101345.38;5014547;28;20033;-71
2022/08/09 07:04:36;;;;;;;5.82;2.85;;;;;;;21.45;58.96;101357.09;5035237;28;20079;-71
2022/08/09 07:07:03;;;;;;;5.60;2.83;;;;;;;21.46;58.97;101355.94;5024458;28;20057;-71
2022/08/09 07:09:28;;;;;;;5.40;3.03;;;;;;;21.57;58.63;101346.69;5027288;28;20069;-71
2022/08/09 07:11:54;;;;;;;6.88;3.28;;;;;;;21.72;58.17;101347.19;5008649;28;20431;-70
2022/08/09 07:14:19;;;;;;;4.38;2.70;;;;;;;21.87;57.39;101360.66;5015864;28;20029;-71
2022/08/09 07:16:45;;;;;;;7.15;2.80;;;;;;;21.92;57.61;101351.09;5011978;28;20034;-71
2022/08/09 07:19:11;;;;;;;6.35;2.55;;;;;;;22.05;57.00;101356.44;5004943;28;20059;-71
2022/08/09 07:21:37;;;;;;;6.65;2.47;;;;;;;22.20;56.79;101345.63;5001945;28;20029;-71
2022/08/09 07:24:03;;;;;;;5.88;2.75;;;;;;;22.31;56.34;101352.47;5051638;28;20036;-71
2022/08/09 07:26:29;;;;;;;7.75;2.95;;;;;;;22.44;56.06;101347.63;5002290;28;20096;-71
2022/08/09 07:28:54;;;;;;;9.05;2.78;;;;;;;22.52;55.61;101341.84;5000958;28;20037;-71
2022/08/09 07:31:20;;;;;;;6.68;2.50;;;;;;;22.63;55.11;101347.03;5011642;28;20053;-71
2022/08/09 07:33:45;;;;;;;6.68;2.40;;;;;;;22.85;54.62;101343.69;5017608;28;20033;-71
2022/08/09 07:36:12;;;;;;;10.15;3.60;;;;;;;22.87;53.91;101352.66;5018125;28;20026;-71
2022/08/09 07:38:37;;;;;;;5.85;2.60;;;;;;;22.87;53.91;101347.00;5018526;28;20113;-71
2022/08/09 07:41:03;;;;;;;4.95;2.55;;;;;;;22.96;53.34;101349.72;5018412;28;20029;-71
2022/08/09 07:43:28;;;;;;;9.73;3.05;;;;;;;22.99;53.18;101346.16;5015607;28;20033;-71
2022/08/09 07:45:54;;;;;;;4.55;2.28;;;;;;;23.16;53.01;101342.22;5034463;28;20025;-71
2022/08/09 07:48:19;;;;;;;7.00;2.15;;;;;;;23.28;52.66;101344.97;5033026;28;20036;-71
2022/08/09 07:50:45;;;;;;;6.47;2.58;;;;;;;23.31;52.21;101352.75;5018459;28;20026;-71
2022/08/09 07:53:10;;;;;;;6.22;2.38;;;;;;;23.36;51.60;101355.34;4998550;28;20063;-71
2022/08/09 07:55:36;;;;;;;7.60;2.25;;;;;;;23.49;51.71;101344.78;4998171;28;20080;-71
2022/08/09 07:58:01;;;;;;;10.52;2.30;;;;;;;23.56;51.45;101344.13;5034593;28;20029;-71
2022/08/09 08:00:28;;;;;;;5.88;2.20;;;;;;;23.60;51.11;101343.06;5017756;28;20052;-71
2022/08/09 08:02:55;;;;;;;6.18;2.47;;;;;;;23.71;50.66;101346.22;5039909;28;20060;-72
2022/08/09 08:05:20;;;;;;;4.18;2.10;;;;;;;23.83;50.36;101334.78;5018293;28;20034;-71
2022/08/09 08:07:46;;;;;;;5.80;2.25;;;;;;;23.89;49.66;101334.53;5018201;28;20589;-71
2022/08/09 08:10:11;;;;;;;4.10;2.03;;;;;;;24.01;50.10;101331.59;5034369;28;20481;-72
2022/08/09 08:12:38;;;;;;;9.45;2.08;;;;;;;24.16;49.54;101341.31;5020456;28;20029;-71
2022/08/09 08:15:04;;;;;;;6.40;1.98;;;;;;;24.30;48.85;101344.50;5038329;28;20109;-72
2022/08/09 08:17:30;;;;;;;4.70;2.15;;;;;;;24.40;48.29;101348.78;5021707;28;20021;-71
2022/08/09 08:19:55;;;;;;;5.40;2.22;;;;;;;24.52;47.56;101349.53;4989136;28;20080;-71
2022/08/09 08:22:21;;;;;;;5.88;2.30;;;;;;;24.48;47.58;101348.59;5021749;28;20046;-71
2022/08/09 08:24:48;;;;;;;6.05;2.20;;;;;;;24.53;47.07;101351.16;5004708;28;20021;-71
2022/08/09 08:27:13;;;;;;;4.65;2.00;;;;;;;24.61;47.51;101342.84;5005499;28;20083;-71
2022/08/09 08:29:39;;;;;;;3.90;1.60;;;;;;;24.69;47.61;101344.66;5015389;28;20478;-71
2022/08/09 08:32:04;;;;;;;7.18;1.85;;;;;;;24.77;46.83;101351.28;4988986;28;20030;-71
2022/08/09 08:34:30;;;;;;;4.13;2.05;;;;;;;24.88;46.55;101341.84;5005118;28;20458;-71
2022/08/09 08:36:55;;;;;;;3.60;1.73;;;;;;;24.93;46.52;101349.22;5021282;28;20034;-71
2022/08/09 08:39:20;;;;;;;4.97;1.77;;;;;;;25.10;46.25;101353.66;5021445;28;20040;-71
2022/08/09 08:41:46;;;;;;;4.15;1.80;;;;;;;25.10;45.76;101345.97;5021338;28;20037;-71
2022/08/09 08:44:12;;;;;;;4.72;1.90;;;;;;;25.16;45.74;101352.22;5024382;28;20025;-72
2022/08/09 08:46:40;;;;;;;4.47;2.33;;;;;;;25.31;45.04;101344.78;5021226;28;20060;-72
2022/08/09 08:49:06;;;;;;;5.43;1.70;;;;;;;25.50;44.95;101332.59;5012131;28;20477;-72
2022/08/09 08:51:32;;;;;;;5.70;1.50;;;;;;;25.66;44.68;101343.84;5021111;28;20109;-71
2022/08/09 08:53:57;;;;;;;8.00;1.90;;;;;;;25.73;44.87;101344.00;5002728;28;20091;-72
2022/08/09 08:56:22;;;;;;;5.95;1.70;;;;;;;25.88;44.10;101345.09;5013552;28;20033;-72
2022/08/09 08:58:48;;;;;;;3.38;1.80;;;;;;;25.92;43.55;101337.47;5004166;28;20030;-71
2022/08/09 09:01:15;;;;;;;9.20;1.70;;;;;;;26.00;43.51;101344.91;5004471;28;20036;-71
2022/08/09 09:03:40;;;;;;;3.50;1.63;;;;;;;26.11;43.06;101334.53;5020963;28;20034;-72
2022/08/09 09:06:06;;;;;;;7.85;2.10;;;;;;;26.20;43.08;101332.25;5004604;28;20059;-71
2022/08/09 09:08:34;;;;;;;3.97;1.45;;;;;;;26.28;42.81;101327.50;5020814;28;20119;-71
2022/08/09 09:11:01;;;;;;;3.47;1.50;;;;;;;26.31;42.75;101326.72;5011213;28;20080;-72
2022/08/09 09:13:27;;;;;;;6.32;1.92;;;;;;;26.32;42.37;101328.38;5021149;28;20036;-71
2022/08/09 09:15:52;;;;;;;4.38;1.60;;;;;;;26.46;42.79;101327.78;5015802;28;20055;-71
2022/08/09 09:18:18;;;;;;;5.82;1.70;;;;;;;26.54;41.95;101328.72;5020412;28;20018;-72
2022/08/09 09:20:43;;;;;;;4.55;1.50;;;;;;;26.54;41.38;101323.03;5020414;28;20053;-72
2022/08/09 09:23:09;;;;;;;6.65;1.52;;;;;;;26.62;41.34;101328.44;5011877;28;20033;-71
2022/08/09 09:25:41;;;;;;;4.65;1.65;;;;;;;26.64;40.80;101323.19;5018829;28;20493;-72
2022/08/09 09:28:07;;;;;;;2.55;1.30;;;;;;;26.67;40.38;101322.44;5036778;28;20469;-72
2022/08/09 09:30:33;;;;;;;5.53;1.42;;;;;;;26.82;40.72;101314.91;5001740;28;20507;-72
2022/08/09 09:33:03;;;;;;;6.22;1.55;;;;;;;26.94;40.57;101308.97;5012979;28;20096;-71
2022/08/09 09:35:29;;;;;;;5.15;1.45;;;;;;;26.98;40.32;101320.41;5008325;28;20041;-72
2022/08/09 09:37:54;;;;;;;5.50;1.55;;;;;;;27.02;40.30;101311.88;5019902;28;20056;-73
2022/08/09 09:40:20;;;;;;;6.78;1.58;;;;;;;27.04;40.71;101306.63;5018470;28;20030;-72
2022/08/09 09:42:55;;;;;;;4.82;1.30;;;;;;;27.04;40.04;101318.03;5036503;28;20040;-71
2022/08/09 09:45:22;;;;;;;5.20;1.30;;;;;;;27.05;39.84;101313.97;5005988;28;20030;-72
2022/08/09 09:47:47;;;;;;;5.03;1.40;;;;;;;27.10;39.75;101310.78;5014309;28;20100;-72
2022/08/09 09:50:13;;;;;;;4.68;1.30;;;;;;;27.16;40.16;101309.25;5020223;28;20048;-72
2022/08/09 09:52:51;;;;;;;4.38;1.27;;;;;;;27.30;40.43;101318.00;5020105;28;20494;-72
2022/08/09 09:55:17;;;;;;;5.07;1.40;;;;;;;27.38;39.52;101305.44;5019822;28;20551;-72
2022/08/09 09:57:59;;;;;;;7.20;1.38;;;;;;;27.53;39.11;101317.84;5003481;28;20049;-72
2022/08/09 10:00:26;;;;;;;7.05;1.45;;;;;;;27.60;38.86;101308.53;5001695;28;20034;-72
2022/08/09 10:02:52;;;;;;;4.32;1.30;;;;;;;27.69;38.94;101300.44;5000556;28;20034;-73
2022/08/09 10:05:17;;;;;;;3.00;1.30;;;;;;;27.78;38.62;101297.31;5018928;28;20477;-73
2022/08/09 10:07:42;;;;;;;4.25;1.23;;;;;;;27.84;38.17;101304.31;5019886;28;20029;-72
2022/08/09 10:10:08;;;;;;;4.00;1.10;;;;;;;27.86;37.99;101304.75;5016489;28;20045;-72
2022/08/09 10:12:36;;;;;;;7.55;1.55;;;;;;;27.89;37.28;101292.53;5040413;28;20485;-72
2022/08/09 10:15:19;;;;;;;3.83;1.60;;;;;;;27.84;37.09;101298.59;5019430;28;20037;-72
2022/08/09 10:17:46;;;;;;;2.25;1.10;;;;;;;28.03;37.38;101289.00;5003004;28;20110;-72
2022/08/09 10:20:20;;;;;;;4.07;1.38;;;;;;;28.20;37.23;101273.22;5019577;28;20096;-72
2022/08/09 10:22:47;;;;;;;2.88;1.40;;;;;;;28.24;37.51;101283.44;5034934;28;20041;-72
2022/08/09 10:25:12;;;;;;;4.35;1.40;;;;;;;28.40;36.93;101279.47;5038913;28;20503;-72
2022/08/09 10:27:39;;;;;;;4.97;1.50;;;;;;;28.43;36.36;101288.09;5019418;28;20025;-72
2022/08/09 10:30:05;;;;;;;2.20;1.27;;;;;;;28.38;36.36;101281.88;5016665;28;20034;-72
2022/08/09 10:32:31;;;;;;;4.25;1.60;;;;;;;28.43;36.69;101275.84;5052695;28;20100;-72
2022/08/09 10:34:57;;;;;;;3.78;1.30;;;;;;;28.39;36.39;101281.50;5035333;28;20078;-71
2022/08/09 10:37:23;;;;;;;6.32;1.23;;;;;;;28.50;36.87;101275.88;5019081;28;20615;-72
2022/08/09 10:39:48;;;;;;;3.28;1.48;;;;;;;28.58;36.35;101291.84;5019501;28;20029;-72
2022/08/09 10:42:14;;;;;;;4.85;1.30;;;;;;;28.48;36.06;101286.91;5026293;28;20021;-72
2022/08/09 10:44:42;;;;;;;5.43;1.35;;;;;;;28.58;36.13;101279.59;5002712;28;20039;-72
2022/08/09 10:47:38;;;;;;;3.47;1.30;;;;;;;28.63;36.07;101280.03;5016759;28;20025;-72
2022/08/09 10:50:11;;;;;;;6.95;1.48;;;;;;;28.68;35.44;101282.50;5052117;28;20079;-72
2022/08/09 10:52:44;;;;;;;2.75;1.30;;;;;;;28.63;35.44;101282.88;5035505;28;20029;-72
2022/08/09 10:55:42;;;;;;;2.83;1.30;;;;;;;28.74;35.13;101269.47;5028550;28;20040;-71
2022/08/09 10:58:08;;;;;;;6.38;1.40;;;;;;;28.89;35.57;101275.25;4984144;28;20042;-72
2022/08/09 11:00:38;;;;;;;5.47;1.33;;;;;;;29.00;35.25;101278.97;5018372;28;20048;-71
2022/08/09 11:03:18;;;;;;;5.35;1.60;;;;;;;28.90;34.92;101283.44;5019067;28;20496;-72
2022/08/09 11:06:17;;;;;;;5.38;1.30;;;;;;;29.00;34.93;101273.25;5001843;28;20128;-72
2022/08/09 11:08:43;;;;;;;4.15;1.30;;;;;;;29.06;35.04;101274.56;5006832;28;20102;-72
2022/08/09 11:11:09;;;;;;;2.65;1.02;;;;;;;29.16;34.85;101259.47;5018706;28;20041;-72
2022/08/09 11:13:34;;;;;;;2.75;1.20;;;;;;;29.32;35.09;101266.88;4999144;28;20501;-72
2022/08/09 11:16:35;;;;;;;3.95;1.25;;;;;;;29.41;34.35;101255.84;5002238;28;20029;-72
2022/08/09 11:19:01;;;;;;;4.00;1.20;;;;;;;29.43;34.39;101264.84;5021013;28;20053;-72
2022/08/09 11:21:56;;;;;;;3.60;1.10;;;;;;;29.45;34.09;101250.97;5018173;28;20529;-72
2022/08/09 11:24:22;;;;;;;4.60;1.20;;;;;;;29.62;34.03;101250.16;5001373;28;20044;-72